sensor_id;sensor_type;location;lat;lon;timestamp;temperature;humidity
15341;DHT22;7770;52.158;5.372;2022-08-19T00:02:26;17.40;99.90
15341;DHT22;7770;52.158;5.372;2022-08-19T00:05:14;17.40;99.90
15341;DHT22;7770;52.158;5.372;2022-08-19T00:08:01;17.40;99.90
15341;DHT22;7770;52.158;5.372;2022-08-19T00:10:48;17.30;99.90
15341;DHT22;7770;52.158;5.372;2022-08-19T00:13:34;17.20;99.90
15341;DHT22;7770;52.158;5.372;2022-08-19T00:16:20;17.20;99.90
15341;DHT22;7770;52.158;5.372;2022-08-19T00:19:07;17.20;99.90
15341;DHT22;7770;52.158;5.372;2022-08-19T00:21:54;17.20;99.90
15341;DHT22;7770;52.158;5.372;2022-08-19T00:24:41;17.20;99.90
15341;DHT22;7770;52.158;5.372;2022-08-19T00:27:29;17.20;99.90
15341;DHT22;7770;52.158;5.372;2022-08-19T00:30:15;17.10;99.90
15341;DHT22;7770;52.158;5.372;2022-08-19T00:33:01;17.10;99.90
15341;DHT22;7770;52.158;5.372;2022-08-19T00:35:47;17.10;99.90
15341;DHT22;7770;52.158;5.372;2022-08-19T00:38:36;17.00;99.90
15341;DHT22;7770;52.158;5.372;2022-08-19T00:41:24;17.00;99.90
15341;DHT22;7770;52.158;5.372;2022-08-19T00:44:23;17.00;99.90
15341;DHT22;7770;52.158;5.372;2022-08-19T00:47:11;16.90;99.90
15341;DHT22;7770;52.158;5.372;2022-08-19T00:49:58;17.00;99.90
15341;DHT22;7770;52.158;5.372;2022-08-19T00:52:48;16.90;99.90
15341;DHT22;7770;52.158;5.372;2022-08-19T00:55:36;17.00;99.90
15341;DHT22;7770;52.158;5.372;2022-08-19T00:58:28;17.00;99.90
15341;DHT22;7770;52.158;5.372;2022-08-19T01:01:15;16.90;99.90
15341;DHT22;7770;52.158;5.372;2022-08-19T01:04:02;16.90;99.90
15341;DHT22;7770;52.158;5.372;2022-08-19T01:06:48;16.90;99.90
15341;DHT22;7770;52.158;5.372;2022-08-19T01:09:34;16.90;99.90
15341;DHT22;7770;52.158;5.372;2022-08-19T01:12:20;16.90;99.90
15341;DHT22;7770;52.158;5.372;2022-08-19T01:15:09;16.90;99.90
15341;DHT22;7770;52.158;5.372;2022-08-19T01:17:59;16.90;99.90
15341;DHT22;7770;52.158;5.372;2022-08-19T01:20:48;16.90;99.90
15341;DHT22;7770;52.158;5.372;2022-08-19T01:23:34;16.90;99.90
15341;DHT22;7770;52.158;5.372;2022-08-19T01:26:29;16.90;99.90
15341;DHT22;7770;52.158;5.372;2022-08-19T01:29:15;16.90;99.90
15341;DHT22;7770;52.158;5.372;2022-08-19T01:32:01;17.00;99.90
15341;DHT22;7770;52.158;5.372;2022-08-19T01:34:47;17.10;99.90
15341;DHT22;7770;52.158;5.372;2022-08-19T01:37:49;17.20;99.90
15341;DHT22;7770;52.158;5.372;2022-08-19T01:40:40;17.40;99.90
15341;DHT22;7770;52.158;5.372;2022-08-19T01:43:27;17.40;99.90
15341;DHT22;7770;52.158;5.372;2022-08-19T01:46:13;17.50;99.90
15341;DHT22;7770;52.158;5.372;2022-08-19T01:48:59;17.50;99.90
15341;DHT22;7770;52.158;5.372;2022-08-19T01:51:46;17.50;99.90
15341;DHT22;7770;52.158;5.372;2022-08-19T01:54:33;17.40;99.90
15341;DHT22;7770;52.158;5.372;2022-08-19T01:57:19;17.40;99.90
15341;DHT22;7770;52.158;5.372;2022-08-19T02:00:09;17.40;99.90
15341;DHT22;7770;52.158;5.372;2022-08-19T02:02:57;17.40;99.90
15341;DHT22;7770;52.158;5.372;2022-08-19T02:05:43;17.30;99.90
15341;DHT22;7770;52.158;5.372;2022-08-19T02:08:33;17.30;99.90
15341;DHT22;7770;52.158;5.372;2022-08-19T02:11:24;17.20;99.90
15341;DHT22;7770;52.158;5.372;2022-08-19T02:14:12;17.20;99.90
15341;DHT22;7770;52.158;5.372;2022-08-19T02:16:58;17.00;99.90
15341;DHT22;7770;52.158;5.372;2022-08-19T02:19:44;17.00;99.90
15341;DHT22;7770;52.158;5.372;2022-08-19T02:22:30;16.90;99.90
15341;DHT22;7770;52.158;5.372;2022-08-19T02:25:16;16.80;99.90
15341;DHT22;7770;52.158;5.372;2022-08-19T02:28:03;16.70;99.90
15341;DHT22;7770;52.158;5.372;2022-08-19T02:30:50;16.60;99.90
15341;DHT22;7770;52.158;5.372;2022-08-19T02:33:36;16.60;99.90
15341;DHT22;7770;52.158;5.372;2022-08-19T02:36:22;16.50;99.90
15341;DHT22;7770;52.158;5.372;2022-08-19T02:39:10;16.50;99.90
15341;DHT22;7770;52.158;5.372;2022-08-19T02:41:56;16.40;99.90
15341;DHT22;7770;52.158;5.372;2022-08-19T02:44:41;16.40;99.90
15341;DHT22;7770;52.158;5.372;2022-08-19T02:47:28;16.40;99.90
15341;DHT22;7770;52.158;5.372;2022-08-19T02:50:14;16.40;99.90
15341;DHT22;7770;52.158;5.372;2022-08-19T02:53:00;16.30;99.90
15341;DHT22;7770;52.158;5.372;2022-08-19T02:55:47;16.20;99.90
15341;DHT22;7770;52.158;5.372;2022-08-19T02:58:33;16.20;99.90
15341;DHT22;7770;52.158;5.372;2022-08-19T03:01:28;16.20;99.90
15341;DHT22;7770;52.158;5.372;2022-08-19T03:04:16;16.20;99.90
15341;DHT22;7770;52.158;5.372;2022-08-19T03:07:02;16.20;99.90
15341;DHT22;7770;52.158;5.372;2022-08-19T03:09:48;16.20;99.90
15341;DHT22;7770;52.158;5.372;2022-08-19T03:12:38;16.20;99.90
15341;DHT22;7770;52.158;5.372;2022-08-19T03:15:24;16.20;99.90
15341;DHT22;7770;52.158;5.372;2022-08-19T03:18:11;16.20;99.90
15341;DHT22;7770;52.158;5.372;2022-08-19T03:20:57;16.20;99.90
15341;DHT22;7770;52.158;5.372;2022-08-19T03:23:43;16.20;99.90
15341;DHT22;7770;52.158;5.372;2022-08-19T03:26:30;16.20;99.90
15341;DHT22;7770;52.158;5.372;2022-08-19T03:29:17;16.20;99.90
15341;DHT22;7770;52.158;5.372;2022-08-19T03:32:05;16.20;99.90
15341;DHT22;7770;52.158;5.372;2022-08-19T03:34:52;16.20;99.90
15341;DHT22;7770;52.158;5.372;2022-08-19T03:37:38;16.20;99.90
15341;DHT22;7770;52.158;5.372;2022-08-19T03:40:24;16.10;99.90
15341;DHT22;7770;52.158;5.372;2022-08-19T03:43:11;16.20;99.90
15341;DHT22;7770;52.158;5.372;2022-08-19T03:46:03;16.20;99.90
15341;DHT22;7770;52.158;5.372;2022-08-19T03:48:54;16.10;99.90
15341;DHT22;7770;52.158;5.372;2022-08-19T03:51:41;16.10;99.90
15341;DHT22;7770;52.158;5.372;2022-08-19T03:54:28;16.20;99.90
15341;DHT22;7770;52.158;5.372;2022-08-19T03:57:14;16.20;99.90
15341;DHT22;7770;52.158;5.372;2022-08-19T04:00:01;16.20;99.90
15341;DHT22;7770;52.158;5.372;2022-08-19T04:02:50;16.20;99.90
15341;DHT22;7770;52.158;5.372;2022-08-19T04:05:36;16.30;99.90
15341;DHT22;7770;52.158;5.372;2022-08-19T04:08:23;16.30;99.90
15341;DHT22;7770;52.158;5.372;2022-08-19T04:11:12;16.30;99.90
15341;DHT22;7770;52.158;5.372;2022-08-19T04:14:00;16.30;99.90
15341;DHT22;7770;52.158;5.372;2022-08-19T04:16:48;16.30;99.90
15341;DHT22;7770;52.158;5.372;2022-08-19T04:19:35;16.20;99.90
15341;DHT22;7770;52.158;5.372;2022-08-19T04:22:21;16.10;99.90
15341;DHT22;7770;52.158;5.372;2022-08-19T04:25:07;16.20;99.90
15341;DHT22;7770;52.158;5.372;2022-08-19T04:27:54;16.20;99.90
15341;DHT22;7770;52.158;5.372;2022-08-19T04:30:42;16.20;99.90
15341;DHT22;7770;52.158;5.372;2022-08-19T04:33:30;16.20;99.90
15341;DHT22;7770;52.158;5.372;2022-08-19T04:36:21;16.20;99.90
15341;DHT22;7770;52.158;5.372;2022-08-19T04:39:16;16.20;99.90
15341;DHT22;7770;52.158;5.372;2022-08-19T04:42:03;16.20;99.90
15341;DHT22;7770;52.158;5.372;2022-08-19T04:45:13;16.20;99.90
15341;DHT22;7770;52.158;5.372;2022-08-19T04:47:59;16.20;99.90
15341;DHT22;7770;52.158;5.372;2022-08-19T04:50:47;16.10;99.90
15341;DHT22;7770;52.158;5.372;2022-08-19T04:53:35;16.10;99.90
15341;DHT22;7770;52.158;5.372;2022-08-19T04:56:23;16.20;99.90
15341;DHT22;7770;52.158;5.372;2022-08-19T04:59:11;16.20;99.90
15341;DHT22;7770;52.158;5.372;2022-08-19T05:02:00;16.30;99.90
15341;DHT22;7770;52.158;5.372;2022-08-19T05:04:46;16.30;99.90
15341;DHT22;7770;52.158;5.372;2022-08-19T05:07:34;16.30;99.90
15341;DHT22;7770;52.158;5.372;2022-08-19T05:10:20;16.40;99.90
15341;DHT22;7770;52.158;5.372;2022-08-19T05:13:06;16.40;99.90
15341;DHT22;7770;52.158;5.372;2022-08-19T05:15:57;16.40;99.90
15341;DHT22;7770;52.158;5.372;2022-08-19T05:18:43;16.50;99.90
15341;DHT22;7770;52.158;5.372;2022-08-19T05:21:48;16.80;99.90
15341;DHT22;7770;52.158;5.372;2022-08-19T05:24:53;17.60;99.90
15341;DHT22;7770;52.158;5.372;2022-08-19T05:27:39;18.20;99.90
15341;DHT22;7770;52.158;5.372;2022-08-19T05:30:26;18.60;99.90
15341;DHT22;7770;52.158;5.372;2022-08-19T05:33:12;18.80;99.90
15341;DHT22;7770;52.158;5.372;2022-08-19T05:35:58;18.70;99.90
15341;DHT22;7770;52.158;5.372;2022-08-19T05:38:44;18.60;99.90
15341;DHT22;7770;52.158;5.372;2022-08-19T05:41:30;18.60;99.90
15341;DHT22;7770;52.158;5.372;2022-08-19T05:44:17;18.80;99.90
15341;DHT22;7770;52.158;5.372;2022-08-19T05:47:05;18.80;99.90
15341;DHT22;7770;52.158;5.372;2022-08-19T05:49:53;18.80;99.90
15341;DHT22;7770;52.158;5.372;2022-08-19T05:52:40;18.80;99.90
15341;DHT22;7770;52.158;5.372;2022-08-19T05:55:26;18.70;99.90
15341;DHT22;7770;52.158;5.372;2022-08-19T05:58:12;18.90;99.90
15341;DHT22;7770;52.158;5.372;2022-08-19T06:00:58;19.00;99.90
15341;DHT22;7770;52.158;5.372;2022-08-19T06:03:49;19.10;99.90
15341;DHT22;7770;52.158;5.372;2022-08-19T06:06:36;19.20;99.90
15341;DHT22;7770;52.158;5.372;2022-08-19T06:09:23;19.30;99.90
15341;DHT22;7770;52.158;5.372;2022-08-19T06:12:09;19.30;99.90
15341;DHT22;7770;52.158;5.372;2022-08-19T06:14:55;19.30;99.90
15341;DHT22;7770;52.158;5.372;2022-08-19T06:17:42;19.40;99.90
15341;DHT22;7770;52.158;5.372;2022-08-19T06:20:30;19.50;99.90
15341;DHT22;7770;52.158;5.372;2022-08-19T06:23:18;19.60;99.90
15341;DHT22;7770;52.158;5.372;2022-08-19T06:26:05;19.60;99.90
15341;DHT22;7770;52.158;5.372;2022-08-19T06:28:52;19.70;99.90
15341;DHT22;7770;52.158;5.372;2022-08-19T06:31:45;19.70;99.90
15341;DHT22;7770;52.158;5.372;2022-08-19T06:34:35;19.80;99.90
15341;DHT22;7770;52.158;5.372;2022-08-19T06:37:21;19.90;99.90
15341;DHT22;7770;52.158;5.372;2022-08-19T06:40:08;20.10;99.90
15341;DHT22;7770;52.158;5.372;2022-08-19T06:42:56;20.40;99.90
15341;DHT22;7770;52.158;5.372;2022-08-19T06:45:44;20.50;99.90
15341;DHT22;7770;52.158;5.372;2022-08-19T06:48:30;20.80;99.90
15341;DHT22;7770;52.158;5.372;2022-08-19T06:51:17;20.80;99.90
15341;DHT22;7770;52.158;5.372;2022-08-19T06:54:04;20.90;99.90
15341;DHT22;7770;52.158;5.372;2022-08-19T06:56:50;21.00;99.90
15341;DHT22;7770;52.158;5.372;2022-08-19T06:59:37;21.00;99.90
15341;DHT22;7770;52.158;5.372;2022-08-19T07:02:23;20.90;99.90
15341;DHT22;7770;52.158;5.372;2022-08-19T07:05:11;21.00;99.90
15341;DHT22;7770;52.158;5.372;2022-08-19T07:07:57;21.00;99.90
15341;DHT22;7770;52.158;5.372;2022-08-19T07:10:44;21.00;99.90
15341;DHT22;7770;52.158;5.372;2022-08-19T07:13:31;20.90;99.90
15341;DHT22;7770;52.158;5.372;2022-08-19T07:16:22;20.80;99.90
15341;DHT22;7770;52.158;5.372;2022-08-19T07:19:08;21.00;99.90
15341;DHT22;7770;52.158;5.372;2022-08-19T07:21:55;21.20;99.90
15341;DHT22;7770;52.158;5.372;2022-08-19T07:24:41;21.30;99.90
15341;DHT22;7770;52.158;5.372;2022-08-19T07:27:27;21.60;99.90
15341;DHT22;7770;52.158;5.372;2022-08-19T07:30:13;21.90;99.90
15341;DHT22;7770;52.158;5.372;2022-08-19T07:32:59;21.80;99.90
15341;DHT22;7770;52.158;5.372;2022-08-19T07:35:45;21.80;99.90
15341;DHT22;7770;52.158;5.372;2022-08-19T07:38:32;21.80;99.90
15341;DHT22;7770;52.158;5.372;2022-08-19T07:41:24;22.00;99.90
15341;DHT22;7770;52.158;5.372;2022-08-19T07:44:11;22.10;99.90
15341;DHT22;7770;52.158;5.372;2022-08-19T07:46:59;22.30;99.90
15341;DHT22;7770;52.158;5.372;2022-08-19T07:49:46;22.60;99.90
15341;DHT22;7770;52.158;5.372;2022-08-19T07:52:33;22.90;99.90
15341;DHT22;7770;52.158;5.372;2022-08-19T07:55:22;23.20;99.90
15341;DHT22;7770;52.158;5.372;2022-08-19T07:58:12;23.50;99.90
15341;DHT22;7770;52.158;5.372;2022-08-19T08:01:01;23.40;99.90
15341;DHT22;7770;52.158;5.372;2022-08-19T08:03:50;23.00;99.90
15341;DHT22;7770;52.158;5.372;2022-08-19T08:06:56;22.70;99.90
15341;DHT22;7770;52.158;5.372;2022-08-19T08:10:00;22.60;99.90
15341;DHT22;7770;52.158;5.372;2022-08-19T08:12:46;22.50;99.90
15341;DHT22;7770;52.158;5.372;2022-08-19T08:15:32;22.10;99.90
15341;DHT22;7770;52.158;5.372;2022-08-19T08:18:18;22.30;99.90
15341;DHT22;7770;52.158;5.372;2022-08-19T08:21:06;22.20;99.90
15341;DHT22;7770;52.158;5.372;2022-08-19T08:23:52;22.00;99.90
15341;DHT22;7770;52.158;5.372;2022-08-19T08:26:41;22.20;99.90
15341;DHT22;7770;52.158;5.372;2022-08-19T08:29:30;22.60;99.90
15341;DHT22;7770;52.158;5.372;2022-08-19T08:32:16;22.90;99.90
15341;DHT22;7770;52.158;5.372;2022-08-19T08:35:05;23.60;99.90
15341;DHT22;7770;52.158;5.372;2022-08-19T08:37:53;25.00;99.90
15341;DHT22;7770;52.158;5.372;2022-08-19T08:40:50;26.00;99.90
15341;DHT22;7770;52.158;5.372;2022-08-19T08:43:40;25.90;99.90
15341;DHT22;7770;52.158;5.372;2022-08-19T08:46:48;26.80;99.90
15341;DHT22;7770;52.158;5.372;2022-08-19T08:49:53;28.40;99.90
15341;DHT22;7770;52.158;5.372;2022-08-19T08:52:47;29.60;99.90
15341;DHT22;7770;52.158;5.372;2022-08-19T08:55:35;30.90;99.90
15341;DHT22;7770;52.158;5.372;2022-08-19T08:58:28;31.10;99.90
15341;DHT22;7770;52.158;5.372;2022-08-19T09:01:27;30.40;99.90
15341;DHT22;7770;52.158;5.372;2022-08-19T09:04:13;30.10;99.90
15341;DHT22;7770;52.158;5.372;2022-08-19T09:07:15;30.50;99.90
15341;DHT22;7770;52.158;5.372;2022-08-19T09:10:21;30.50;99.90
15341;DHT22;7770;52.158;5.372;2022-08-19T09:16:19;30.40;99.90
15341;DHT22;7770;52.158;5.372;2022-08-19T09:19:08;31.40;99.90
15341;DHT22;7770;52.158;5.372;2022-08-19T09:21:54;30.70;99.90
15341;DHT22;7770;52.158;5.372;2022-08-19T09:24:40;31.20;99.90
15341;DHT22;7770;52.158;5.372;2022-08-19T09:27:27;31.60;99.90
15341;DHT22;7770;52.158;5.372;2022-08-19T09:30:17;31.10;99.90
15341;DHT22;7770;52.158;5.372;2022-08-19T09:33:09;30.60;99.90
15341;DHT22;7770;52.158;5.372;2022-08-19T09:36:16;29.60;99.90
15341;DHT22;7770;52.158;5.372;2022-08-19T09:39:05;28.80;99.90
15341;DHT22;7770;52.158;5.372;2022-08-19T09:41:51;28.40;99.90
15341;DHT22;7770;52.158;5.372;2022-08-19T09:44:39;27.50;99.90
15341;DHT22;7770;52.158;5.372;2022-08-19T09:47:26;27.60;99.90
15341;DHT22;7770;52.158;5.372;2022-08-19T09:50:12;27.50;99.90
15341;DHT22;7770;52.158;5.372;2022-08-19T09:52:59;29.00;99.90
15341;DHT22;7770;52.158;5.372;2022-08-19T09:55:45;30.80;99.90
15341;DHT22;7770;52.158;5.372;2022-08-19T09:58:32;33.10;99.90
15341;DHT22;7770;52.158;5.372;2022-08-19T10:01:23;34.60;98.90
15341;DHT22;7770;52.158;5.372;2022-08-19T10:04:10;33.90;99.00
15341;DHT22;7770;52.158;5.372;2022-08-19T10:06:56;32.50;99.90
15341;DHT22;7770;52.158;5.372;2022-08-19T10:09:42;31.10;99.90
15341;DHT22;7770;52.158;5.372;2022-08-19T10:12:28;30.30;99.90
15341;DHT22;7770;52.158;5.372;2022-08-19T10:15:14;32.10;99.90
15341;DHT22;7770;52.158;5.372;2022-08-19T10:18:01;32.80;99.70
15341;DHT22;7770;52.158;5.372;2022-08-19T10:20:48;33.80;99.00
15341;DHT22;7770;52.158;5.372;2022-08-19T10:23:36;34.40;98.40
15341;DHT22;7770;52.158;5.372;2022-08-19T10:26:26;33.00;98.50
15341;DHT22;7770;52.158;5.372;2022-08-19T10:29:16;31.50;99.90
15341;DHT22;7770;52.158;5.372;2022-08-19T10:32:07;31.70;99.90
15341;DHT22;7770;52.158;5.372;2022-08-19T10:34:53;30.90;99.90
15341;DHT22;7770;52.158;5.372;2022-08-19T10:37:40;31.10;99.90
15341;DHT22;7770;52.158;5.372;2022-08-19T10:40:27;32.00;99.90
15341;DHT22;7770;52.158;5.372;2022-08-19T10:43:13;34.00;99.50
15341;DHT22;7770;52.158;5.372;2022-08-19T10:46:00;35.80;98.30
15341;DHT22;7770;52.158;5.372;2022-08-19T10:48:46;35.80;97.10
15341;DHT22;7770;52.158;5.372;2022-08-19T10:51:32;36.60;96.80
15341;DHT22;7770;52.158;5.372;2022-08-19T10:54:37;36.10;97.10
15341;DHT22;7770;52.158;5.372;2022-08-19T10:57:41;33.60;98.70
15341;DHT22;7770;52.158;5.372;2022-08-19T11:00:27;33.50;99.20
15341;DHT22;7770;52.158;5.372;2022-08-19T11:03:13;33.30;99.30
15341;DHT22;7770;52.158;5.372;2022-08-19T11:06:03;33.50;99.90
15341;DHT22;7770;52.158;5.372;2022-08-19T11:08:53;34.60;98.70
15341;DHT22;7770;52.158;5.372;2022-08-19T11:11:39;36.60;97.60
15341;DHT22;7770;52.158;5.372;2022-08-19T11:14:26;37.00;96.80
15341;DHT22;7770;52.158;5.372;2022-08-19T11:17:13;37.80;96.30
15341;DHT22;7770;52.158;5.372;2022-08-19T11:20:01;37.20;96.50
15341;DHT22;7770;52.158;5.372;2022-08-19T11:22:52;36.60;96.50
15341;DHT22;7770;52.158;5.372;2022-08-19T11:25:39;37.00;95.90
15341;DHT22;7770;52.158;5.372;2022-08-19T11:28:25;36.50;96.70
15341;DHT22;7770;52.158;5.372;2022-08-19T11:31:22;35.00;97.50
15341;DHT22;7770;52.158;5.372;2022-08-19T11:34:13;34.60;98.40
15341;DHT22;7770;52.158;5.372;2022-08-19T11:37:04;34.30;98.10
15341;DHT22;7770;52.158;5.372;2022-08-19T11:39:51;35.60;97.70
15341;DHT22;7770;52.158;5.372;2022-08-19T11:42:37;35.90;97.20
15341;DHT22;7770;52.158;5.372;2022-08-19T11:45:41;35.30;98.20
15341;DHT22;7770;52.158;5.372;2022-08-19T11:48:27;35.20;97.60
15341;DHT22;7770;52.158;5.372;2022-08-19T11:51:15;34.90;98.10
15341;DHT22;7770;52.158;5.372;2022-08-19T11:54:06;35.00;98.00
15341;DHT22;7770;52.158;5.372;2022-08-19T11:56:52;34.70;98.00
15341;DHT22;7770;52.158;5.372;2022-08-19T11:59:38;34.80;98.00
15341;DHT22;7770;52.158;5.372;2022-08-19T12:02:24;33.70;98.30
15341;DHT22;7770;52.158;5.372;2022-08-19T12:05:11;32.20;99.90
15341;DHT22;7770;52.158;5.372;2022-08-19T12:07:57;31.20;99.90
15341;DHT22;7770;52.158;5.372;2022-08-19T12:10:43;30.50;99.90
15341;DHT22;7770;52.158;5.372;2022-08-19T12:13:30;29.50;99.90
15341;DHT22;7770;52.158;5.372;2022-08-19T12:16:19;28.90;99.90
15341;DHT22;7770;52.158;5.372;2022-08-19T12:19:06;28.20;99.90
15341;DHT22;7770;52.158;5.372;2022-08-19T12:21:52;27.60;99.90
15341;DHT22;7770;52.158;5.372;2022-08-19T12:24:40;27.30;99.90
15341;DHT22;7770;52.158;5.372;2022-08-19T12:27:26;27.10;99.90
15341;DHT22;7770;52.158;5.372;2022-08-19T12:30:13;26.90;99.90
15341;DHT22;7770;52.158;5.372;2022-08-19T12:32:59;26.70;99.90
15341;DHT22;7770;52.158;5.372;2022-08-19T12:35:45;26.40;99.90
15341;DHT22;7770;52.158;5.372;2022-08-19T12:38:33;25.70;99.90
15341;DHT22;7770;52.158;5.372;2022-08-19T12:41:20;25.00;99.90
15341;DHT22;7770;52.158;5.372;2022-08-19T12:44:07;24.60;99.90
15341;DHT22;7770;52.158;5.372;2022-08-19T12:46:53;24.60;99.90
15341;DHT22;7770;52.158;5.372;2022-08-19T12:49:40;24.60;99.90
15341;DHT22;7770;52.158;5.372;2022-08-19T12:52:26;24.60;99.90
15341;DHT22;7770;52.158;5.372;2022-08-19T12:55:12;24.90;99.90
15341;DHT22;7770;52.158;5.372;2022-08-19T12:57:59;25.80;99.90
15341;DHT22;7770;52.158;5.372;2022-08-19T13:00:47;26.60;99.90
15341;DHT22;7770;52.158;5.372;2022-08-19T13:03:33;27.40;99.90
15341;DHT22;7770;52.158;5.372;2022-08-19T13:06:19;27.30;99.90
15341;DHT22;7770;52.158;5.372;2022-08-19T13:09:05;27.00;99.90
15341;DHT22;7770;52.158;5.372;2022-08-19T13:11:51;26.40;99.90
15341;DHT22;7770;52.158;5.372;2022-08-19T13:14:37;26.00;99.90
15341;DHT22;7770;52.158;5.372;2022-08-19T13:17:23;25.90;99.90
15341;DHT22;7770;52.158;5.372;2022-08-19T13:20:10;25.40;99.90
15341;DHT22;7770;52.158;5.372;2022-08-19T13:22:56;25.20;99.90
15341;DHT22;7770;52.158;5.372;2022-08-19T13:25:42;25.00;99.90
15341;DHT22;7770;52.158;5.372;2022-08-19T13:28:28;25.00;99.90
15341;DHT22;7770;52.158;5.372;2022-08-19T13:31:36;25.00;99.90
15341;DHT22;7770;52.158;5.372;2022-08-19T13:34:43;24.70;99.90
15341;DHT22;7770;52.158;5.372;2022-08-19T13:37:32;24.50;99.90
15341;DHT22;7770;52.158;5.372;2022-08-19T13:40:27;24.40;99.90
15341;DHT22;7770;52.158;5.372;2022-08-19T13:43:14;24.20;99.90
15341;DHT22;7770;52.158;5.372;2022-08-19T13:46:09;24.20;99.90
15341;DHT22;7770;52.158;5.372;2022-08-19T13:48:58;24.30;99.90
15341;DHT22;7770;52.158;5.372;2022-08-19T13:51:44;24.20;99.90
15341;DHT22;7770;52.158;5.372;2022-08-19T13:54:30;24.20;99.90
15341;DHT22;7770;52.158;5.372;2022-08-19T13:57:16;24.30;99.90
15341;DHT22;7770;52.158;5.372;2022-08-19T14:00:06;24.30;99.90
15341;DHT22;7770;52.158;5.372;2022-08-19T14:02:56;24.30;99.90
15341;DHT22;7770;52.158;5.372;2022-08-19T14:05:43;24.10;99.90
15341;DHT22;7770;52.158;5.372;2022-08-19T14:08:29;24.10;99.90
15341;DHT22;7770;52.158;5.372;2022-08-19T14:11:17;24.10;99.90
15341;DHT22;7770;52.158;5.372;2022-08-19T14:14:04;24.00;99.90
15341;DHT22;7770;52.158;5.372;2022-08-19T14:16:50;24.00;99.90
15341;DHT22;7770;52.158;5.372;2022-08-19T14:19:37;24.20;99.90
15341;DHT22;7770;52.158;5.372;2022-08-19T14:22:23;24.10;99.90
15341;DHT22;7770;52.158;5.372;2022-08-19T14:25:13;24.10;99.90
15341;DHT22;7770;52.158;5.372;2022-08-19T14:28:01;24.20;99.90
15341;DHT22;7770;52.158;5.372;2022-08-19T14:30:47;24.10;99.90
15341;DHT22;7770;52.158;5.372;2022-08-19T14:33:33;24.00;99.90
15341;DHT22;7770;52.158;5.372;2022-08-19T14:36:20;23.90;99.90
15341;DHT22;7770;52.158;5.372;2022-08-19T14:39:06;23.80;99.90
15341;DHT22;7770;52.158;5.372;2022-08-19T14:41:52;23.80;99.90
15341;DHT22;7770;52.158;5.372;2022-08-19T14:44:38;23.90;99.90
15341;DHT22;7770;52.158;5.372;2022-08-19T14:47:25;23.90;99.90
15341;DHT22;7770;52.158;5.372;2022-08-19T14:50:11;23.90;99.90
15341;DHT22;7770;52.158;5.372;2022-08-19T14:53:00;23.90;99.90
15341;DHT22;7770;52.158;5.372;2022-08-19T14:55:49;23.70;99.90
15341;DHT22;7770;52.158;5.372;2022-08-19T14:58:35;23.60;99.90
15341;DHT22;7770;52.158;5.372;2022-08-19T15:01:22;23.80;99.90
15341;DHT22;7770;52.158;5.372;2022-08-19T15:04:08;23.90;99.90
15341;DHT22;7770;52.158;5.372;2022-08-19T15:06:54;24.10;99.90
15341;DHT22;7770;52.158;5.372;2022-08-19T15:09:40;23.80;99.90
15341;DHT22;7770;52.158;5.372;2022-08-19T15:12:27;24.10;99.90
15341;DHT22;7770;52.158;5.372;2022-08-19T15:15:15;24.20;99.90
15341;DHT22;7770;52.158;5.372;2022-08-19T15:18:03;24.10;99.90
15341;DHT22;7770;52.158;5.372;2022-08-19T15:20:50;24.10;99.90
15341;DHT22;7770;52.158;5.372;2022-08-19T15:23:36;24.40;99.90
15341;DHT22;7770;52.158;5.372;2022-08-19T15:26:22;24.80;99.90
15341;DHT22;7770;52.158;5.372;2022-08-19T15:29:08;25.00;99.90
15341;DHT22;7770;52.158;5.372;2022-08-19T15:31:55;25.10;99.90
15341;DHT22;7770;52.158;5.372;2022-08-19T15:34:41;25.20;99.90
15341;DHT22;7770;52.158;5.372;2022-08-19T15:37:27;25.30;99.90
15341;DHT22;7770;52.158;5.372;2022-08-19T15:40:13;25.40;99.90
15341;DHT22;7770;52.158;5.372;2022-08-19T15:42:59;25.40;99.90
15341;DHT22;7770;52.158;5.372;2022-08-19T15:45:45;25.60;99.90
15341;DHT22;7770;52.158;5.372;2022-08-19T15:48:32;25.30;99.90
15341;DHT22;7770;52.158;5.372;2022-08-19T15:51:18;25.10;99.90
15341;DHT22;7770;52.158;5.372;2022-08-19T15:54:07;24.90;99.90
15341;DHT22;7770;52.158;5.372;2022-08-19T15:56:54;24.60;99.90
15341;DHT22;7770;52.158;5.372;2022-08-19T15:59:58;24.40;99.90
15341;DHT22;7770;52.158;5.372;2022-08-19T16:03:03;24.30;99.90
15341;DHT22;7770;52.158;5.372;2022-08-19T16:06:07;24.20;99.90
15341;DHT22;7770;52.158;5.372;2022-08-19T16:09:11;24.20;99.90
15341;DHT22;7770;52.158;5.372;2022-08-19T16:11:59;24.10;99.90
15341;DHT22;7770;52.158;5.372;2022-08-19T16:14:48;24.10;99.90
15341;DHT22;7770;52.158;5.372;2022-08-19T16:17:34;24.10;99.90
15341;DHT22;7770;52.158;5.372;2022-08-19T16:20:20;24.10;99.90
15341;DHT22;7770;52.158;5.372;2022-08-19T16:23:07;24.20;99.90
15341;DHT22;7770;52.158;5.372;2022-08-19T16:25:53;24.10;99.90
15341;DHT22;7770;52.158;5.372;2022-08-19T16:28:40;24.00;99.90
15341;DHT22;7770;52.158;5.372;2022-08-19T16:31:27;24.00;99.90
15341;DHT22;7770;52.158;5.372;2022-08-19T16:34:14;23.90;99.90
15341;DHT22;7770;52.158;5.372;2022-08-19T16:37:00;24.20;99.90
15341;DHT22;7770;52.158;5.372;2022-08-19T16:39:46;24.50;99.90
15341;DHT22;7770;52.158;5.372;2022-08-19T16:42:32;24.70;99.90
15341;DHT22;7770;52.158;5.372;2022-08-19T16:45:18;24.90;99.90
15341;DHT22;7770;52.158;5.372;2022-08-19T16:48:06;25.00;99.90
15341;DHT22;7770;52.158;5.372;2022-08-19T16:50:52;25.00;99.90
15341;DHT22;7770;52.158;5.372;2022-08-19T16:53:40;25.10;99.90
15341;DHT22;7770;52.158;5.372;2022-08-19T16:56:28;25.10;99.90
15341;DHT22;7770;52.158;5.372;2022-08-19T16:59:15;24.70;99.90
15341;DHT22;7770;52.158;5.372;2022-08-19T17:02:01;24.60;99.90
15341;DHT22;7770;52.158;5.372;2022-08-19T17:04:48;24.50;99.90
15341;DHT22;7770;52.158;5.372;2022-08-19T17:07:36;24.30;99.90
15341;DHT22;7770;52.158;5.372;2022-08-19T17:10:22;24.10;99.90
15341;DHT22;7770;52.158;5.372;2022-08-19T17:13:08;24.00;99.90
15341;DHT22;7770;52.158;5.372;2022-08-19T17:15:55;23.90;99.90
15341;DHT22;7770;52.158;5.372;2022-08-19T17:18:41;23.80;99.90
15341;DHT22;7770;52.158;5.372;2022-08-19T17:21:30;23.70;99.90
15341;DHT22;7770;52.158;5.372;2022-08-19T17:24:17;23.70;99.90
15341;DHT22;7770;52.158;5.372;2022-08-19T17:27:04;23.60;99.90
15341;DHT22;7770;52.158;5.372;2022-08-19T17:29:50;23.50;99.90
15341;DHT22;7770;52.158;5.372;2022-08-19T17:32:37;23.40;99.90
15341;DHT22;7770;52.158;5.372;2022-08-19T17:35:23;23.30;99.90
15341;DHT22;7770;52.158;5.372;2022-08-19T17:38:12;23.20;99.90
15341;DHT22;7770;52.158;5.372;2022-08-19T17:41:01;23.10;99.90
15341;DHT22;7770;52.158;5.372;2022-08-19T17:43:51;23.10;99.90
15341;DHT22;7770;52.158;5.372;2022-08-19T17:46:37;23.10;99.90
15341;DHT22;7770;52.158;5.372;2022-08-19T17:49:23;23.00;99.90
15341;DHT22;7770;52.158;5.372;2022-08-19T17:52:09;23.00;99.90
15341;DHT22;7770;52.158;5.372;2022-08-19T17:54:56;22.90;99.90
15341;DHT22;7770;52.158;5.372;2022-08-19T17:57:42;22.90;99.90
15341;DHT22;7770;52.158;5.372;2022-08-19T18:00:28;22.90;99.90
15341;DHT22;7770;52.158;5.372;2022-08-19T18:03:14;22.80;99.90